sensor_id;sensor_type;location;lat;lon;timestamp;pressure;altitude;pressure_sealevel;temperature;humidity
73842;BME280;62184;52.006;5.924;2023-08-31T00:01:25;99994.63;;;18.05;51.52
73842;BME280;62184;52.006;5.924;2023-08-31T00:03:52;99995.59;;;18.04;51.77
73842;BME280;62184;52.006;5.924;2023-08-31T00:06:21;99989.22;;;18.05;51.30
73842;BME280;62184;52.006;5.924;2023-08-31T00:08:47;99986.41;;;18.06;51.35
73842;BME280;62184;52.006;5.924;2023-08-31T00:11:14;99986.41;;;18.06;51.28
73842;BME280;62184;52.006;5.924;2023-08-31T00:13:40;99985.31;;;18.09;51.30
73842;BME280;62184;52.006;5.924;2023-08-31T00:16:07;99982.50;;;18.10;51.34
73842;BME280;62184;52.006;5.924;2023-08-31T00:18:33;99971.81;;;18.09;51.62
73842;BME280;62184;52.006;5.924;2023-08-31T00:21:00;99974.75;;;18.06;51.82
73842;BME280;62184;52.006;5.924;2023-08-31T00:23:29;99974.16;;;18.01;51.89
73842;BME280;62184;52.006;5.924;2023-08-31T00:25:55;99967.38;;;17.95;51.88
73842;BME280;62184;52.006;5.924;2023-08-31T00:28:22;99963.78;;;17.94;52.23
73842;BME280;62184;52.006;5.924;2023-08-31T00:30:48;99963.03;;;17.92;52.18
73842;BME280;62184;52.006;5.924;2023-08-31T00:33:16;99953.09;;;17.93;52.37
73842;BME280;62184;52.006;5.924;2023-08-31T00:35:43;99960.31;;;17.92;52.27
73842;BME280;62184;52.006;5.924;2023-08-31T00:38:09;99957.63;;;17.92;52.52
73842;BME280;62184;52.006;5.924;2023-08-31T00:40:41;99959.25;;;17.95;52.55
73842;BME280;62184;52.006;5.924;2023-08-31T00:43:08;99958.28;;;17.96;52.94
73842;BME280;62184;52.006;5.924;2023-08-31T00:45:34;99957.44;;;17.95;52.66
73842;BME280;62184;52.006;5.924;2023-08-31T00:48:01;99958.41;;;17.94;52.52
73842;BME280;62184;52.006;5.924;2023-08-31T00:50:28;99975.47;;;17.95;52.75
73842;BME280;62184;52.006;5.924;2023-08-31T00:52:55;99970.06;;;17.95;52.75
73842;BME280;62184;52.006;5.924;2023-08-31T00:55:22;99976.34;;;17.95;52.55
73842;BME280;62184;52.006;5.924;2023-08-31T00:57:51;99976.34;;;17.95;52.39
73842;BME280;62184;52.006;5.924;2023-08-31T01:00:18;99976.34;;;17.95;52.40
73842;BME280;62184;52.006;5.924;2023-08-31T01:02:51;99968.44;;;17.92;52.60
73842;BME280;62184;52.006;5.924;2023-08-31T01:05:33;99974.72;;;17.93;52.48
73842;BME280;62184;52.006;5.924;2023-08-31T01:08:19;99969.31;;;17.93;52.95
73842;BME280;62184;52.006;5.924;2023-08-31T01:11:00;99968.44;;;17.92;52.88
73842;BME280;62184;52.006;5.924;2023-08-31T01:13:37;99976.44;;;17.94;52.87
73842;BME280;62184;52.006;5.924;2023-08-31T01:16:11;99978.94;;;17.97;52.87
73842;BME280;62184;52.006;5.924;2023-08-31T01:18:40;99981.41;;;18.00;53.22
73842;BME280;62184;52.006;5.924;2023-08-31T01:21:12;99977.75;;;18.01;53.42
73842;BME280;62184;52.006;5.924;2023-08-31T01:23:55;99979.47;;;18.02;53.21
73842;BME280;62184;52.006;5.924;2023-08-31T01:26:23;99988.56;;;18.01;53.27
73842;BME280;62184;52.006;5.924;2023-08-31T01:28:51;99978.72;;;18.00;53.09
73842;BME280;62184;52.006;5.924;2023-08-31T01:31:18;99981.22;;;18.03;53.28
73842;BME280;62184;52.006;5.924;2023-08-31T01:33:45;99983.03;;;18.03;53.29
73842;BME280;62184;52.006;5.924;2023-08-31T01:36:18;99982.84;;;18.06;53.23
73842;BME280;62184;52.006;5.924;2023-08-31T01:38:58;99978.94;;;18.10;53.56
73842;BME280;62184;52.006;5.924;2023-08-31T01:41:34;99986.09;;;18.11;53.61
73842;BME280;62184;52.006;5.924;2023-08-31T01:44:03;99981.44;;;18.13;53.69
73842;BME280;62184;52.006;5.924;2023-08-31T01:46:31;99983.19;;;18.14;53.57
73842;BME280;62184;52.006;5.924;2023-08-31T01:48:58;99987.63;;;18.15;53.99
73842;BME280;62184;52.006;5.924;2023-08-31T01:51:25;99973.34;;;18.13;53.58
73842;BME280;62184;52.006;5.924;2023-08-31T01:53:51;99978.75;;;18.13;53.99
73842;BME280;62184;52.006;5.924;2023-08-31T01:56:20;99978.41;;;18.17;53.56
73842;BME280;62184;52.006;5.924;2023-08-31T01:58:47;99985.34;;;18.21;53.65
73842;BME280;62184;52.006;5.924;2023-08-31T02:01:13;99985.13;;;18.24;53.56
73842;BME280;62184;52.006;5.924;2023-08-31T02:03:40;99986.44;;;18.31;53.56
73842;BME280;62184;52.006;5.924;2023-08-31T02:06:06;99984.34;;;18.35;53.33
73842;BME280;62184;52.006;5.924;2023-08-31T02:08:32;99986.19;;;18.34;53.04
73842;BME280;62184;52.006;5.924;2023-08-31T02:10:59;99989.75;;;18.35;53.32
73842;BME280;62184;52.006;5.924;2023-08-31T02:13:29;99992.16;;;18.40;53.29
73842;BME280;62184;52.006;5.924;2023-08-31T02:15:56;99987.28;;;18.45;53.32
73842;BME280;62184;52.006;5.924;2023-08-31T02:18:22;99997.59;;;18.52;52.80
73842;BME280;62184;52.006;5.924;2023-08-31T02:20:51;99991.53;;;18.61;52.89
73842;BME280;62184;52.006;5.924;2023-08-31T02:23:18;99989.47;;;18.65;52.80
73842;BME280;62184;52.006;5.924;2023-08-31T02:25:44;99991.53;;;18.61;52.64
73842;BME280;62184;52.006;5.924;2023-08-31T02:28:11;99993.16;;;18.64;52.74
73842;BME280;62184;52.006;5.924;2023-08-31T02:30:40;99991.31;;;18.64;52.77
73842;BME280;62184;52.006;5.924;2023-08-31T02:33:09;99992.28;;;18.63;52.41
73842;BME280;62184;52.006;5.924;2023-08-31T02:35:36;99994.88;;;18.65;52.67
73842;BME280;62184;52.006;5.924;2023-08-31T02:38:03;99992.59;;;18.72;52.36
73842;BME280;62184;52.006;5.924;2023-08-31T02:40:29;99995.94;;;18.75;52.29
73842;BME280;62184;52.006;5.924;2023-08-31T02:42:56;100010.13;;;18.79;52.63
73842;BME280;62184;52.006;5.924;2023-08-31T02:45:22;100017.16;;;18.81;52.35
73842;BME280;62184;52.006;5.924;2023-08-31T02:47:51;100011.63;;;18.83;52.50
73842;BME280;62184;52.006;5.924;2023-08-31T02:50:18;100016.59;;;18.89;52.50
73842;BME280;62184;52.006;5.924;2023-08-31T02:52:44;100018.63;;;18.98;52.15
73842;BME280;62184;52.006;5.924;2023-08-31T02:55:11;100009.31;;;19.02;51.96
73842;BME280;62184;52.006;5.924;2023-08-31T02:57:37;100017.97;;;19.07;52.28
73842;BME280;62184;52.006;5.924;2023-08-31T03:00:05;100006.28;;;19.06;52.07
73842;BME280;62184;52.006;5.924;2023-08-31T03:02:32;100010.72;;;19.07;51.83
73842;BME280;62184;52.006;5.924;2023-08-31T03:05:01;100006.78;;;19.12;51.67
73842;BME280;62184;52.006;5.924;2023-08-31T03:07:28;100004.50;;;19.18;51.48
73842;BME280;62184;52.006;5.924;2023-08-31T03:09:54;100004.06;;;19.24;51.54
73842;BME280;62184;52.006;5.924;2023-08-31T03:12:21;100004.38;;;19.32;51.66
73842;BME280;62184;52.006;5.924;2023-08-31T03:14:48;100015.53;;;19.40;51.37
73842;BME280;62184;52.006;5.924;2023-08-31T03:17:14;100032.28;;;19.45;51.07
73842;BME280;62184;52.006;5.924;2023-08-31T03:19:41;100030.31;;;19.48;51.46
73842;BME280;62184;52.006;5.924;2023-08-31T03:22:10;100019.88;;;19.54;51.07
73842;BME280;62184;52.006;5.924;2023-08-31T03:24:37;100017.34;;;19.64;51.09
73842;BME280;62184;52.006;5.924;2023-08-31T03:27:04;100009.00;;;19.67;50.93
73842;BME280;62184;52.006;5.924;2023-08-31T03:29:30;99995.47;;;19.67;50.71
73842;BME280;62184;52.006;5.924;2023-08-31T03:31:57;100001.31;;;19.61;50.81
73842;BME280;62184;52.006;5.924;2023-08-31T03:34:23;99989.97;;;19.56;51.08
73842;BME280;62184;52.006;5.924;2023-08-31T03:36:50;99988.47;;;19.52;50.74
73842;BME280;62184;52.006;5.924;2023-08-31T03:39:19;99992.16;;;19.51;50.86
73842;BME280;62184;52.006;5.924;2023-08-31T03:41:45;99990.47;;;19.50;51.03
73842;BME280;62184;52.006;5.924;2023-08-31T03:44:12;99987.75;;;19.50;50.73
73842;BME280;62184;52.006;5.924;2023-08-31T03:46:38;99986.75;;;19.51;50.61
73842;BME280;62184;52.006;5.924;2023-08-31T03:49:05;99982.56;;;19.47;51.05
73842;BME280;62184;52.006;5.924;2023-08-31T03:51:31;99984.00;;;19.39;50.88
73842;BME280;62184;52.006;5.924;2023-08-31T03:53:57;99981.72;;;19.33;50.97
73842;BME280;62184;52.006;5.924;2023-08-31T03:56:27;99979.13;;;19.32;51.38
73842;BME280;62184;52.006;5.924;2023-08-31T03:58:53;99989.63;;;19.36;51.57
73842;BME280;62184;52.006;5.924;2023-08-31T04:01:20;99979.34;;;19.41;51.42
73842;BME280;62184;52.006;5.924;2023-08-31T04:03:46;99984.59;;;19.43;50.97
73842;BME280;62184;52.006;5.924;2023-08-31T04:06:13;99985.47;;;19.43;51.14
73842;BME280;62184;52.006;5.924;2023-08-31T04:08:39;99996.19;;;19.45;51.30
73842;BME280;62184;52.006;5.924;2023-08-31T04:11:05;99994.25;;;19.47;51.34
73842;BME280;62184;52.006;5.924;2023-08-31T04:13:34;100004.97;;;19.49;51.26
73842;BME280;62184;52.006;5.924;2023-08-31T04:16:01;99992.50;;;19.46;51.22
73842;BME280;62184;52.006;5.924;2023-08-31T04:18:27;99997.72;;;19.49;51.65
73842;BME280;62184;52.006;5.924;2023-08-31T04:20:54;99997.34;;;19.54;51.41
73842;BME280;62184;52.006;5.924;2023-08-31T04:23:21;100002.31;;;19.60;51.65
73842;BME280;62184;52.006;5.924;2023-08-31T04:25:48;100003.91;;;19.62;51.46
73842;BME280;62184;52.006;5.924;2023-08-31T04:28:14;100004.44;;;19.67;51.17
73842;BME280;62184;52.006;5.924;2023-08-31T04:30:43;100002.38;;;19.71;50.93
73842;BME280;62184;52.006;5.924;2023-08-31T04:33:10;100003.00;;;19.74;51.31
73842;BME280;62184;52.006;5.924;2023-08-31T04:35:36;100004.75;;;19.75;50.92
73842;BME280;62184;52.006;5.924;2023-08-31T04:38:03;100010.28;;;19.74;51.25
73842;BME280;62184;52.006;5.924;2023-08-31T04:40:30;100012.22;;;19.72;50.83
73842;BME280;62184;52.006;5.924;2023-08-31T04:42:56;100013.19;;;19.71;51.23
73842;BME280;62184;52.006;5.924;2023-08-31T04:45:23;100014.97;;;19.59;51.50
73842;BME280;62184;52.006;5.924;2023-08-31T04:47:52;100018.69;;;19.58;51.63
73842;BME280;62184;52.006;5.924;2023-08-31T04:50:18;100012.41;;;19.58;51.83
73842;BME280;62184;52.006;5.924;2023-08-31T04:52:45;100021.03;;;19.63;51.46
73842;BME280;62184;52.006;5.924;2023-08-31T04:55:13;100031.78;;;19.64;51.99
73842;BME280;62184;52.006;5.924;2023-08-31T04:57:39;100030.78;;;19.65;51.92
73842;BME280;62184;52.006;5.924;2023-08-31T05:00:07;100032.75;;;19.63;51.67
73842;BME280;62184;52.006;5.924;2023-08-31T05:02:34;100024.94;;;19.59;51.79
73842;BME280;62184;52.006;5.924;2023-08-31T05:05:04;100034.19;;;19.56;52.05
73842;BME280;62184;52.006;5.924;2023-08-31T05:07:32;100039.06;;;19.51;52.24
73842;BME280;62184;52.006;5.924;2023-08-31T05:09:58;100049.63;;;19.43;52.44
73842;BME280;62184;52.006;5.924;2023-08-31T05:12:24;100046.28;;;19.39;52.44
73842;BME280;62184;52.006;5.924;2023-08-31T05:14:51;100052.13;;;19.33;52.96
73842;BME280;62184;52.006;5.924;2023-08-31T05:17:17;100057.22;;;19.25;53.10
73842;BME280;62184;52.006;5.924;2023-08-31T05:19:44;100056.91;;;19.17;53.35
73842;BME280;62184;52.006;5.924;2023-08-31T05:22:13;100066.66;;;19.20;53.37
73842;BME280;62184;52.006;5.924;2023-08-31T05:24:40;100062.75;;;19.24;53.92
73842;BME280;62184;52.006;5.924;2023-08-31T05:27:06;100075.19;;;19.26;53.38
73842;BME280;62184;52.006;5.924;2023-08-31T05:29:33;100072.72;;;19.23;53.79
73842;BME280;62184;52.006;5.924;2023-08-31T05:31:59;100071.00;;;19.22;54.11
73842;BME280;62184;52.006;5.924;2023-08-31T05:34:25;100076.50;;;19.21;53.82
73842;BME280;62184;52.006;5.924;2023-08-31T05:36:52;100085.84;;;19.17;54.23
73842;BME280;62184;52.006;5.924;2023-08-31T05:39:21;100084.31;;;19.13;54.13
73842;BME280;62184;52.006;5.924;2023-08-31T05:41:48;100088.13;;;19.10;54.30
73842;BME280;62184;52.006;5.924;2023-08-31T05:44:14;100096.13;;;19.12;54.72
73842;BME280;62184;52.006;5.924;2023-08-31T05:46:41;100091.78;;;19.09;54.77
73842;BME280;62184;52.006;5.924;2023-08-31T05:49:08;100091.47;;;19.14;54.94
73842;BME280;62184;52.006;5.924;2023-08-31T05:51:34;100102.81;;;19.19;55.20
73842;BME280;62184;52.006;5.924;2023-08-31T05:54:01;100084.75;;;19.19;55.17
73842;BME280;62184;52.006;5.924;2023-08-31T05:56:30;100082.78;;;19.21;54.98
73842;BME280;62184;52.006;5.924;2023-08-31T05:58:57;100095.13;;;19.25;55.02
73842;BME280;62184;52.006;5.924;2023-08-31T06:01:23;100091.22;;;19.29;54.87
73842;BME280;62184;52.006;5.924;2023-08-31T06:03:50;100100.88;;;19.33;54.88
73842;BME280;62184;52.006;5.924;2023-08-31T06:06:16;100100.56;;;19.38;54.60
73842;BME280;62184;52.006;5.924;2023-08-31T06:08:43;100105.75;;;19.41;54.63
73842;BME280;62184;52.006;5.924;2023-08-31T06:11:09;100099.69;;;19.37;55.06
73842;BME280;62184;52.006;5.924;2023-08-31T06:13:38;100101.31;;;19.40;55.18
73842;BME280;62184;52.006;5.924;2023-08-31T06:16:05;100108.47;;;19.41;55.15
73842;BME280;62184;52.006;5.924;2023-08-31T06:18:31;100107.59;;;19.40;54.74
73842;BME280;62184;52.006;5.924;2023-08-31T06:20:58;100098.25;;;19.44;54.56
73842;BME280;62184;52.006;5.924;2023-08-31T06:23:24;100111.34;;;19.51;54.53
73842;BME280;62184;52.006;5.924;2023-08-31T06:25:51;100118.19;;;19.56;54.52
73842;BME280;62184;52.006;5.924;2023-08-31T06:28:18;100118.59;;;19.63;54.27
73842;BME280;62184;52.006;5.924;2023-08-31T06:30:47;100118.88;;;19.71;54.42
73842;BME280;62184;52.006;5.924;2023-08-31T06:33:13;100118.66;;;19.74;53.98
73842;BME280;62184;52.006;5.924;2023-08-31T06:35:40;100123.66;;;19.67;53.94
73842;BME280;62184;52.006;5.924;2023-08-31T06:38:07;100126.72;;;19.63;53.91
73842;BME280;62184;52.006;5.924;2023-08-31T06:40:33;100128.09;;;19.68;54.09
73842;BME280;62184;52.006;5.924;2023-08-31T06:43:00;100131.09;;;19.76;54.52
73842;BME280;62184;52.006;5.924;2023-08-31T06:45:26;100134.69;;;20.01;54.98
73842;BME280;62184;52.006;5.924;2023-08-31T06:47:55;100137.25;;;20.15;54.43
73842;BME280;62184;52.006;5.924;2023-08-31T06:50:22;100143.53;;;20.15;53.91
73842;BME280;62184;52.006;5.924;2023-08-31T06:52:48;100135.63;;;20.12;53.95
73842;BME280;62184;52.006;5.924;2023-08-31T06:55:15;100147.69;;;20.08;54.21
73842;BME280;62184;52.006;5.924;2023-08-31T06:57:41;100130.28;;;20.00;54.01
73842;BME280;62184;52.006;5.924;2023-08-31T07:00:09;100138.72;;;19.95;53.72
73842;BME280;62184;52.006;5.924;2023-08-31T07:02:38;100136.81;;;19.84;54.30
73842;BME280;62184;52.006;5.924;2023-08-31T07:05:10;100137.94;;;19.82;54.43
73842;BME280;62184;52.006;5.924;2023-08-31T07:07:37;100146.16;;;19.80;54.65
73842;BME280;62184;52.006;5.924;2023-08-31T07:10:05;100149.50;;;19.84;55.12
73842;BME280;62184;52.006;5.924;2023-08-31T07:12:32;100160.53;;;19.94;55.57
73842;BME280;62184;52.006;5.924;2023-08-31T07:14:58;100164.28;;;20.04;55.35
73842;BME280;62184;52.006;5.924;2023-08-31T07:17:25;100158.06;;;20.14;55.46
73842;BME280;62184;52.006;5.924;2023-08-31T07:19:52;100163.59;;;20.26;55.00
73842;BME280;62184;52.006;5.924;2023-08-31T07:22:22;100165.81;;;20.32;54.66
73842;BME280;62184;52.006;5.924;2023-08-31T07:24:48;100170.28;;;20.33;54.18
73842;BME280;62184;52.006;5.924;2023-08-31T07:27:15;100169.28;;;20.34;54.22
73842;BME280;62184;52.006;5.924;2023-08-31T07:29:41;100170.59;;;20.28;54.07
73842;BME280;62184;52.006;5.924;2023-08-31T07:32:08;100174.06;;;20.30;54.35
73842;BME280;62184;52.006;5.924;2023-08-31T07:34:34;100175.91;;;20.30;54.31
73842;BME280;62184;52.006;5.924;2023-08-31T07:37:01;100178.63;;;20.30;54.59
73842;BME280;62184;52.006;5.924;2023-08-31T07:39:30;100168.66;;;20.30;54.58
73842;BME280;62184;52.006;5.924;2023-08-31T07:41:57;100177.28;;;20.35;54.89
73842;BME280;62184;52.006;5.924;2023-08-31T07:44:23;100172.50;;;20.39;54.54
73842;BME280;62184;52.006;5.924;2023-08-31T07:46:50;100178.09;;;20.48;54.78
73842;BME280;62184;52.006;5.924;2023-08-31T07:49:16;100179.03;;;20.71;55.35
73842;BME280;62184;52.006;5.924;2023-08-31T07:51:43;100185.66;;;20.91;54.72
73842;BME280;62184;52.006;5.924;2023-08-31T07:54:09;100186.66;;;21.01;54.54
73842;BME280;62184;52.006;5.924;2023-08-31T07:56:39;100188.16;;;21.05;54.52
73842;BME280;62184;52.006;5.924;2023-08-31T07:59:05;100185.72;;;21.13;54.10
73842;BME280;62184;52.006;5.924;2023-08-31T08:01:31;100195.47;;;21.16;53.76
73842;BME280;62184;52.006;5.924;2023-08-31T08:03:58;100195.72;;;21.13;53.62
73842;BME280;62184;52.006;5.924;2023-08-31T08:06:24;100199.31;;;21.24;53.73
73842;BME280;62184;52.006;5.924;2023-08-31T08:08:51;100205.13;;;21.31;53.82
73842;BME280;62184;52.006;5.924;2023-08-31T08:11:17;100195.59;;;21.37;53.58
73842;BME280;62184;52.006;5.924;2023-08-31T08:13:46;100202.66;;;21.39;52.99
73842;BME280;62184;52.006;5.924;2023-08-31T08:16:13;100203.16;;;21.33;52.67
73842;BME280;62184;52.006;5.924;2023-08-31T08:18:39;100204.38;;;21.29;53.41
73842;BME280;62184;52.006;5.924;2023-08-31T08:21:06;100209.69;;;21.30;53.44
73842;BME280;62184;52.006;5.924;2023-08-31T08:23:33;100201.91;;;21.26;53.10
73842;BME280;62184;52.006;5.924;2023-08-31T08:25:59;100199.78;;;21.18;52.57
73842;BME280;62184;52.006;5.924;2023-08-31T08:28:26;100198.69;;;21.21;53.41
73842;BME280;62184;52.006;5.924;2023-08-31T08:30:55;100206.34;;;21.38;54.19
73842;BME280;62184;52.006;5.924;2023-08-31T08:33:22;100207.84;;;21.64;53.34
73842;BME280;62184;52.006;5.924;2023-08-31T08:35:48;100210.59;;;21.76;53.23
73842;BME280;62184;52.006;5.924;2023-08-31T08:38:15;100220.84;;;21.83;52.64
73842;BME280;62184;52.006;5.924;2023-08-31T08:40:41;100220.47;;;21.99;53.62
73842;BME280;62184;52.006;5.924;2023-08-31T08:43:08;100219.63;;;22.30;53.48
73842;BME280;62184;52.006;5.924;2023-08-31T08:45:37;100224.94;;;22.43;52.71
73842;BME280;62184;52.006;5.924;2023-08-31T08:48:08;100239.38;;;22.43;52.69
73842;BME280;62184;52.006;5.924;2023-08-31T08:50:36;100234.47;;;22.49;52.15
73842;BME280;62184;52.006;5.924;2023-08-31T08:53:04;100233.47;;;22.50;51.81
73842;BME280;62184;52.006;5.924;2023-08-31T08:55:31;100238.28;;;22.46;52.50
73842;BME280;62184;52.006;5.924;2023-08-31T08:57:59;100244.38;;;22.50;52.29
73842;BME280;62184;52.006;5.924;2023-08-31T09:00:26;100243.59;;;22.59;52.33
73842;BME280;62184;52.006;5.924;2023-08-31T09:02:53;100239.47;;;22.64;52.87
73842;BME280;62184;52.006;5.924;2023-08-31T09:05:22;100232.13;;;22.76;52.19
73842;BME280;62184;52.006;5.924;2023-08-31T09:08:02;100229.41;;;22.76;51.46
73842;BME280;62184;52.006;5.924;2023-08-31T09:10:33;100235.84;;;22.75;51.61
73842;BME280;62184;52.006;5.924;2023-08-31T09:13:04;100231.81;;;22.90;52.21
73842;BME280;62184;52.006;5.924;2023-08-31T09:15:44;100238.31;;;23.19;51.52
73842;BME280;62184;52.006;5.924;2023-08-31T09:18:15;100232.41;;;23.56;51.82
73842;BME280;62184;52.006;5.924;2023-08-31T09:20:51;100230.72;;;23.95;51.27
73842;BME280;62184;52.006;5.924;2023-08-31T09:23:18;100236.88;;;24.37;50.92
73842;BME280;62184;52.006;5.924;2023-08-31T09:25:46;100225.75;;;24.69;49.19
73842;BME280;62184;52.006;5.924;2023-08-31T09:28:14;100237.66;;;24.78;48.95
73842;BME280;62184;52.006;5.924;2023-08-31T09:30:42;100235.06;;;24.95;48.42
73842;BME280;62184;52.006;5.924;2023-08-31T09:33:09;100227.44;;;25.18;48.02
73842;BME280;62184;52.006;5.924;2023-08-31T09:35:39;100232.44;;;25.42;47.35
73842;BME280;62184;52.006;5.924;2023-08-31T09:38:14;100241.63;;;25.51;46.27
73842;BME280;62184;52.006;5.924;2023-08-31T09:40:41;100240.19;;;25.47;46.38
73842;BME280;62184;52.006;5.924;2023-08-31T09:43:08;100229.44;;;25.35;45.69
73842;BME280;62184;52.006;5.924;2023-08-31T09:45:34;100243.22;;;25.24;45.28
73842;BME280;62184;52.006;5.924;2023-08-31T09:48:04;100235.19;;;25.03;45.72
73842;BME280;62184;52.006;5.924;2023-08-31T09:50:32;100236.22;;;25.02;46.20
73842;BME280;62184;52.006;5.924;2023-08-31T09:53:02;100224.84;;;25.26;45.83
73842;BME280;62184;52.006;5.924;2023-08-31T09:55:32;100225.94;;;25.53;45.69
73842;BME280;62184;52.006;5.924;2023-08-31T09:58:00;100225.56;;;25.75;44.91
73842;BME280;62184;52.006;5.924;2023-08-31T10:00:29;100224.03;;;26.00;44.95
73842;BME280;62184;52.006;5.924;2023-08-31T10:03:02;100225.84;;;26.36;44.09
73842;BME280;62184;52.006;5.924;2023-08-31T10:05:30;100220.84;;;26.49;42.99
73842;BME280;62184;52.006;5.924;2023-08-31T10:07:58;100223.25;;;26.35;42.67
73842;BME280;62184;52.006;5.924;2023-08-31T10:10:26;100225.25;;;26.15;42.59
73842;BME280;62184;52.006;5.924;2023-08-31T10:12:58;100234.41;;;25.96;42.50
73842;BME280;62184;52.006;5.924;2023-08-31T10:15:27;100230.66;;;25.88;42.82
73842;BME280;62184;52.006;5.924;2023-08-31T10:17:59;100240.25;;;25.74;43.22
73842;BME280;62184;52.006;5.924;2023-08-31T10:20:26;100244.03;;;25.63;43.92
73842;BME280;62184;52.006;5.924;2023-08-31T10:22:53;100243.75;;;25.57;44.04
73842;BME280;62184;52.006;5.924;2023-08-31T10:25:20;100233.31;;;25.42;44.73
73842;BME280;62184;52.006;5.924;2023-08-31T10:27:46;100243.00;;;25.27;44.33
73842;BME280;62184;52.006;5.924;2023-08-31T10:30:26;100243.69;;;25.10;44.78
73842;BME280;62184;52.006;5.924;2023-08-31T10:33:19;100238.66;;;24.96;44.97
73842;BME280;62184;52.006;5.924;2023-08-31T10:35:51;100238.53;;;24.97;46.47
73842;BME280;62184;52.006;5.924;2023-08-31T10:38:24;100229.13;;;25.38;45.89
73842;BME280;62184;52.006;5.924;2023-08-31T10:41:20;100238.25;;;25.66;45.42
73842;BME280;62184;52.006;5.924;2023-08-31T10:43:49;100241.72;;;26.05;44.79
73842;BME280;62184;52.006;5.924;2023-08-31T10:46:25;100235.31;;;26.42;44.36
73842;BME280;62184;52.006;5.924;2023-08-31T10:48:57;100222.34;;;26.79;43.43
73842;BME280;62184;52.006;5.924;2023-08-31T10:51:27;100211.28;;;27.07;41.47
73842;BME280;62184;52.006;5.924;2023-08-31T10:54:09;100208.75;;;27.31;40.90
73842;BME280;62184;52.006;5.924;2023-08-31T10:56:52;100210.97;;;27.53;40.47
73842;BME280;62184;52.006;5.924;2023-08-31T10:59:20;100211.84;;;27.88;39.08
73842;BME280;62184;52.006;5.924;2023-08-31T11:01:55;100221.19;;;28.03;37.94
73842;BME280;62184;52.006;5.924;2023-08-31T11:04:23;100208.84;;;28.07;37.31
73842;BME280;62184;52.006;5.924;2023-08-31T11:07:14;100215.06;;;28.17;35.37
73842;BME280;62184;52.006;5.924;2023-08-31T11:09:42;100210.25;;;28.11;35.58
73842;BME280;62184;52.006;5.924;2023-08-31T11:12:10;100210.56;;;28.08;36.25
73842;BME280;62184;52.006;5.924;2023-08-31T11:14:38;100215.59;;;28.21;35.49
73842;BME280;62184;52.006;5.924;2023-08-31T11:17:07;100212.38;;;28.33;35.18
73842;BME280;62184;52.006;5.924;2023-08-31T11:19:35;100216.22;;;28.57;34.84
73842;BME280;62184;52.006;5.924;2023-08-31T11:22:03;100203.72;;;28.62;33.79
73842;BME280;62184;52.006;5.924;2023-08-31T11:24:30;100213.50;;;28.73;34.48
73842;BME280;62184;52.006;5.924;2023-08-31T11:26:58;100222.16;;;28.94;34.06
73842;BME280;62184;52.006;5.924;2023-08-31T11:29:24;100217.13;;;29.14;33.27
73842;BME280;62184;52.006;5.924;2023-08-31T11:31:51;100215.25;;;29.14;33.13
73842;BME280;62184;52.006;5.924;2023-08-31T11:34:20;100211.44;;;29.32;32.75
73842;BME280;62184;52.006;5.924;2023-08-31T11:36:47;100216.06;;;29.47;31.63
73842;BME280;62184;52.006;5.924;2023-08-31T11:39:14;100212.28;;;29.40;30.98
73842;BME280;62184;52.006;5.924;2023-08-31T11:41:43;100210.41;;;29.41;31.01
73842;BME280;62184;52.006;5.924;2023-08-31T11:44:12;100212.81;;;29.44;30.69
73842;BME280;62184;52.006;5.924;2023-08-31T11:46:42;100203.00;;;29.41;29.95
73842;BME280;62184;52.006;5.924;2023-08-31T11:49:11;100203.00;;;29.49;30.86
73842;BME280;62184;52.006;5.924;2023-08-31T11:51:41;100204.72;;;29.50;30.29
73842;BME280;62184;52.006;5.924;2023-08-31T11:54:08;100211.25;;;29.41;29.88
73842;BME280;62184;52.006;5.924;2023-08-31T11:56:39;100212.31;;;29.16;30.10
73842;BME280;62184;52.006;5.924;2023-08-31T11:59:08;100206.34;;;29.12;30.29
73842;BME280;62184;52.006;5.924;2023-08-31T12:01:38;100223.19;;;29.01;31.00
73842;BME280;62184;52.006;5.924;2023-08-31T12:04:10;100214.91;;;28.93;29.14
73842;BME280;62184;52.006;5.924;2023-08-31T12:06:40;100222.09;;;28.86;29.79
73842;BME280;62184;52.006;5.924;2023-08-31T12:09:07;100213.66;;;28.79;29.52
73842;BME280;62184;52.006;5.924;2023-08-31T12:11:34;100219.16;;;28.71;29.88
73842;BME280;62184;52.006;5.924;2023-08-31T12:14:02;100212.78;;;28.63;29.62
73842;BME280;62184;52.006;5.924;2023-08-31T12:16:33;100219.97;;;28.48;28.89
73842;BME280;62184;52.006;5.924;2023-08-31T12:19:00;100221.56;;;28.08;29.32
73842;BME280;62184;52.006;5.924;2023-08-31T12:21:28;100212.91;;;27.87;29.75
73842;BME280;62184;52.006;5.924;2023-08-31T12:23:57;100219.47;;;28.02;29.71
73842;BME280;62184;52.006;5.924;2023-08-31T12:26:24;100215.78;;;28.27;29.65
73842;BME280;62184;52.006;5.924;2023-08-31T12:28:51;100210.41;;;28.60;28.37
73842;BME280;62184;52.006;5.924;2023-08-31T12:31:17;100212.47;;;28.74;27.96
73842;BME280;62184;52.006;5.924;2023-08-31T12:33:44;100213.34;;;28.91;28.11
73842;BME280;62184;52.006;5.924;2023-08-31T12:36:10;100214.53;;;28.88;27.85
73842;BME280;62184;52.006;5.924;2023-08-31T12:38:37;100215.25;;;28.98;28.39
73842;BME280;62184;52.006;5.924;2023-08-31T12:41:06;100221.97;;;29.12;27.72
73842;BME280;62184;52.006;5.924;2023-08-31T12:43:33;100232.28;;;29.26;27.78
73842;BME280;62184;52.006;5.924;2023-08-31T12:45:59;100226.94;;;29.33;27.14
73842;BME280;62184;52.006;5.924;2023-08-31T12:48:26;100219.84;;;29.46;27.43
73842;BME280;62184;52.006;5.924;2023-08-31T12:50:53;100216.06;;;29.64;27.20
73842;BME280;62184;52.006;5.924;2023-08-31T12:53:20;100218.81;;;29.64;27.24
73842;BME280;62184;52.006;5.924;2023-08-31T12:55:48;100216.44;;;29.61;27.06
73842;BME280;62184;52.006;5.924;2023-08-31T12:58:17;100215.88;;;29.65;26.96